Time;durP1;ratioP1;P1;durP2;ratioP2;P2;SDS_P1;SDS_P2;PMS_P1;PMS_P2;Temp;Humidity;BMP_temperature;BMP_pressure;BME280_temperature;BME280_humidity;BME280_pressure;Samples;Min_cycle;Max_cycle;Signal;HPM_P1;HPM_P2
2022/02/13 00:01:48;;;;;;;9.63;6.43;;;2.20;99.90;;;;;;5038319;28;20279;-68
2022/02/13 00:04:15;;;;;;;15.00;6.18;;;2.10;99.90;;;;;;5048905;28;20052;-68
2022/02/13 00:06:41;;;;;;;13.48;7.20;;;2.00;99.90;;;;;;5038004;28;20178;-69
2022/02/13 00:09:07;;;;;;;15.13;6.78;;;2.00;99.90;;;;;;5022846;28;20037;-68
2022/02/13 00:11:33;;;;;;;11.32;6.82;;;2.00;99.90;;;;;;5023550;28;20053;-68
2022/02/13 00:13:59;;;;;;;13.23;6.75;;;2.00;99.90;;;;;;5046863;28;20404;-68
2022/02/13 00:16:25;;;;;;;15.63;7.15;;;2.00;99.90;;;;;;5042203;28;20044;-68
2022/02/13 00:18:51;;;;;;;12.23;6.60;;;2.00;99.90;;;;;;5043090;28;20041;-68
2022/02/13 00:21:17;;;;;;;12.32;7.38;;;1.90;99.90;;;;;;5042133;28;20408;-68
2022/02/13 00:23:43;;;;;;;15.52;7.90;;;1.90;99.90;;;;;;5001125;28;20045;-68
2022/02/13 00:26:10;;;;;;;12.73;8.07;;;2.00;99.90;;;;;;5042122;28;20500;-68
2022/02/13 00:28:36;;;;;;;16.77;8.27;;;1.80;99.90;;;;;;5043325;28;20078;-67
2022/02/13 00:31:03;;;;;;;11.75;7.40;;;1.80;99.90;;;;;;5026684;28;20075;-67
2022/02/13 00:33:29;;;;;;;16.83;7.30;;;1.80;99.90;;;;;;5011285;28;20091;-68
2022/02/13 00:35:55;;;;;;;15.55;7.00;;;1.80;99.90;;;;;;5059606;28;20045;-68
2022/02/13 00:38:22;;;;;;;10.60;7.30;;;1.80;99.90;;;;;;5026197;28;20056;-69
2022/02/13 00:40:48;;;;;;;15.27;7.85;;;1.80;99.90;;;;;;5011719;28;20060;-68
2022/02/13 00:43:14;;;;;;;12.00;8.00;;;1.80;99.90;;;;;;5044220;28;20064;-69
2022/02/13 00:45:40;;;;;;;15.00;7.75;;;1.70;99.90;;;;;;5027211;28;20052;-68
2022/02/13 00:48:10;;;;;;;12.82;7.88;;;1.80;99.90;;;;;;5044675;28;20041;-67
2022/02/13 00:50:36;;;;;;;12.23;7.88;;;1.80;99.90;;;;;;5041108;28;20427;-69
2022/02/13 00:53:05;;;;;;;10.75;6.88;;;1.70;99.90;;;;;;4995445;28;20208;-69
2022/02/13 00:55:31;;;;;;;14.32;7.50;;;1.70;99.90;;;;;;5040646;28;20049;-68
2022/02/13 00:57:58;;;;;;;15.10;7.57;;;1.70;99.90;;;;;;5043009;28;20151;-63
2022/02/13 01:00:25;;;;;;;13.63;8.52;;;1.70;99.90;;;;;;5042858;28;20048;-67
2022/02/13 01:02:51;;;;;;;12.85;7.28;;;1.70;99.90;;;;;;5025036;28;20059;-64
2022/02/13 01:05:18;;;;;;;12.93;7.70;;;1.70;99.90;;;;;;5045548;28;20084;-68
2022/02/13 01:07:44;;;;;;;18.83;8.73;;;1.70;99.90;;;;;;5026167;28;20135;-68
2022/02/13 01:10:11;;;;;;;11.88;7.18;;;1.70;99.90;;;;;;5024450;28;20055;-69
2022/02/13 01:12:37;;;;;;;11.35;7.22;;;1.60;99.90;;;;;;5026082;28;20037;-69
2022/02/13 01:15:03;;;;;;;14.27;8.07;;;1.70;99.90;;;;;;5042642;28;20040;-69
2022/02/13 01:17:29;;;;;;;15.35;7.50;;;1.60;99.90;;;;;;5024220;28;20052;-69
2022/02/13 01:19:55;;;;;;;14.93;7.65;;;1.70;99.90;;;;;;5042216;28;20106;-68
2022/02/13 01:22:22;;;;;;;15.40;7.22;;;1.60;99.90;;;;;;5024916;28;20044;-69
2022/02/13 01:24:48;;;;;;;13.23;7.82;;;1.60;99.90;;;;;;5039716;28;20049;-69
2022/02/13 01:27:14;;;;;;;12.15;7.50;;;1.70;99.90;;;;;;5039020;28;20099;-68
2022/02/13 01:29:42;;;;;;;12.48;7.05;;;1.60;99.90;;;;;;5043174;28;20048;-68
2022/02/13 01:32:08;;;;;;;15.85;7.60;;;1.60;99.90;;;;;;5042735;28;20057;-68
2022/02/13 01:34:34;;;;;;;11.95;7.18;;;1.60;99.90;;;;;;5006411;28;20077;-68
2022/02/13 01:37:00;;;;;;;12.57;7.15;;;1.60;99.90;;;;;;5022557;28;20529;-68
2022/02/13 01:39:27;;;;;;;13.50;7.47;;;1.60;99.90;;;;;;5025585;28;20037;-62
2022/02/13 01:41:55;;;;;;;10.93;7.00;;;1.60;99.90;;;;;;5058526;28;20045;-62
2022/02/13 01:44:31;;;;;;;13.63;7.93;;;1.60;99.90;;;;;;5013889;28;20056;-62
2022/02/13 01:46:58;;;;;;;12.93;7.68;;;1.60;99.90;;;;;;5043415;28;20461;-62
2022/02/13 01:49:25;;;;;;;13.63;7.63;;;1.60;99.90;;;;;;5040180;28;20128;-62
2022/02/13 01:51:53;;;;;;;12.82;7.50;;;1.50;99.90;;;;;;5040507;28;20071;-62
2022/02/13 01:54:19;;;;;;;16.10;7.30;;;1.60;99.90;;;;;;5023000;28;20098;-62
2022/02/13 01:56:46;;;;;;;12.25;7.88;;;1.50;99.90;;;;;;5039870;28;20091;-63
2022/02/13 01:59:12;;;;;;;11.15;7.47;;;1.50;99.90;;;;;;5040562;28;20043;-63
2022/02/13 02:01:40;;;;;;;13.90;7.88;;;1.50;99.90;;;;;;5024515;28;20088;-63
2022/02/13 02:04:06;;;;;;;16.02;8.10;;;1.50;99.90;;;;;;4993701;28;20049;-62
2022/02/13 02:06:32;;;;;;;14.93;7.88;;;1.50;99.90;;;;;;5024312;28;20075;-62
2022/02/13 02:08:59;;;;;;;11.48;7.57;;;1.60;99.90;;;;;;5007043;28;20798;-62
2022/02/13 02:11:25;;;;;;;12.68;8.85;;;1.50;99.90;;;;;;5024846;28;20052;-62
2022/02/13 02:13:51;;;;;;;14.15;7.55;;;1.60;99.90;;;;;;5041511;28;20134;-62
2022/02/13 02:16:17;;;;;;;14.55;8.65;;;1.60;99.90;;;;;;5022436;28;20635;-62
2022/02/13 02:18:43;;;;;;;18.45;8.23;;;1.50;99.90;;;;;;5025297;28;20523;-62
2022/02/13 02:21:10;;;;;;;15.45;8.13;;;1.50;99.90;;;;;;5039784;28;20053;-63
2022/02/13 02:23:40;;;;;;;13.18;7.78;;;1.50;99.90;;;;;;5040383;28;20095;-62
2022/02/13 02:26:08;;;;;;;13.82;8.48;;;1.50;99.90;;;;;;5033767;28;20135;-62
2022/02/13 02:28:35;;;;;;;12.85;8.45;;;1.40;99.90;;;;;;5025763;28;20458;-61
2022/02/13 02:31:01;;;;;;;15.80;8.57;;;1.40;99.90;;;;;;5040632;28;20091;-62
2022/02/13 02:33:28;;;;;;;16.10;8.93;;;1.40;99.90;;;;;;5041444;28;20191;-62
2022/02/13 02:35:55;;;;;;;12.50;8.00;;;1.40;99.90;;;;;;4999901;28;20400;-62
2022/02/13 02:38:21;;;;;;;12.70;7.53;;;1.40;99.90;;;;;;5040125;28;20049;-62
2022/02/13 02:40:47;;;;;;;14.57;8.15;;;1.40;99.90;;;;;;5039234;28;20638;-62
2022/02/13 02:43:13;;;;;;;20.33;8.55;;;1.40;99.90;;;;;;5024460;28;20044;-62
2022/02/13 02:45:39;;;;;;;16.27;8.43;;;1.40;99.90;;;;;;5025138;28;20081;-62
2022/02/13 02:48:06;;;;;;;11.45;7.88;;;1.40;99.90;;;;;;5024571;28;20451;-64
2022/02/13 02:50:32;;;;;;;12.30;7.93;;;1.40;99.90;;;;;;5015710;28;20088;-62
2022/02/13 02:52:58;;;;;;;11.25;8.10;;;1.30;99.90;;;;;;5036900;28;20590;-62
2022/02/13 02:55:24;;;;;;;15.43;8.38;;;1.40;99.90;;;;;;5011239;28;20125;-62
2022/02/13 02:57:50;;;;;;;13.95;7.97;;;1.40;99.90;;;;;;5040908;28;20051;-70
2022/02/13 03:00:16;;;;;;;11.30;8.85;;;1.40;99.90;;;;;;5041117;28;20435;-69
2022/02/13 03:02:43;;;;;;;12.93;8.00;;;1.40;99.90;;;;;;5025070;28;20048;-67
2022/02/13 03:05:09;;;;;;;15.05;9.07;;;1.40;99.90;;;;;;5006779;28;20052;-69
2022/02/13 03:07:36;;;;;;;12.95;8.25;;;1.30;99.90;;;;;;5023054;28;20098;-62
2022/02/13 03:10:02;;;;;;;17.05;8.98;;;1.30;99.90;;;;;;5023169;28;20052;-70
2022/02/13 03:12:28;;;;;;;14.80;8.18;;;1.40;99.90;;;;;;5021283;28;20249;-62
2022/02/13 03:14:54;;;;;;;14.18;8.20;;;1.30;99.90;;;;;;5022189;28;20095;-62
2022/02/13 03:17:20;;;;;;;14.57;8.80;;;1.30;99.90;;;;;;5039208;28;20057;-69
2022/02/13 03:19:46;;;;;;;16.80;8.82;;;1.40;99.90;;;;;;5023532;28;20124;-63
2022/02/13 03:22:13;;;;;;;14.85;8.30;;;1.30;99.90;;;;;;5055781;28;20530;-69
2022/02/13 03:24:39;;;;;;;14.63;8.15;;;1.30;99.90;;;;;;5038732;28;20084;-70
2022/02/13 03:27:05;;;;;;;13.07;8.15;;;1.20;99.90;;;;;;5023989;28;20472;-69
2022/02/13 03:29:31;;;;;;;10.85;8.00;;;1.30;99.90;;;;;;5040035;28;20068;-62
2022/02/13 03:31:57;;;;;;;13.98;8.05;;;1.30;99.90;;;;;;5023546;28;20459;-70
2022/02/13 03:34:23;;;;;;;11.55;8.70;;;1.20;99.90;;;;;;5024041;28;20491;-62
2022/02/13 03:36:50;;;;;;;13.60;8.68;;;1.30;99.90;;;;;;5023265;28;20041;-69
2022/02/13 03:39:17;;;;;;;14.80;9.63;;;1.20;99.90;;;;;;5008478;28;20110;-70
2022/02/13 03:41:43;;;;;;;16.23;8.48;;;1.20;99.90;;;;;;5006498;28;20045;-70
2022/02/13 03:44:09;;;;;;;12.32;8.55;;;1.20;99.90;;;;;;5007282;28;20049;-70
2022/02/13 03:46:35;;;;;;;15.88;8.93;;;1.20;99.90;;;;;;5038605;28;20539;-69
2022/02/13 03:49:01;;;;;;;12.57;8.27;;;1.20;99.90;;;;;;5027679;28;20053;-69
2022/02/13 03:51:27;;;;;;;13.07;8.60;;;1.10;99.90;;;;;;5042911;28;20458;-70
2022/02/13 03:53:53;;;;;;;13.93;8.30;;;1.20;99.90;;;;;;5011046;28;20049;-70
2022/02/13 03:56:20;;;;;;;16.20;8.50;;;1.10;99.90;;;;;;5043823;28;20064;-70
2022/02/13 03:58:46;;;;;;;15.18;8.73;;;1.10;99.90;;;;;;5043265;28;20502;-70
2022/02/13 04:01:12;;;;;;;15.18;8.90;;;1.10;99.90;;;;;;5026859;28;20051;-70
2022/02/13 04:03:38;;;;;;;17.35;8.63;;;1.10;99.90;;;;;;5042621;28;20071;-73
2022/02/13 04:06:04;;;;;;;18.73;10.32;;;1.10;99.90;;;;;;5007887;28;20053;-70
2022/02/13 04:08:30;;;;;;;13.95;8.77;;;1.10;99.90;;;;;;5026421;28;20055;-70
2022/02/13 04:10:58;;;;;;;15.82;8.73;;;1.00;99.90;;;;;;5042722;28;20520;-70
2022/02/13 04:13:26;;;;;;;13.90;8.73;;;1.00;99.90;;;;;;5043302;28;20127;-70
2022/02/13 04:15:52;;;;;;;13.35;8.68;;;1.00;99.90;;;;;;5009766;28;20044;-70
2022/02/13 04:18:19;;;;;;;11.32;8.13;;;1.00;99.90;;;;;;5042782;28;20041;-70
2022/02/13 04:20:45;;;;;;;13.75;8.82;;;1.00;99.90;;;;;;5026028;28;20060;-70
2022/02/13 04:23:12;;;;;;;13.75;8.98;;;1.00;99.90;;;;;;5008371;28;20107;-70
2022/02/13 04:25:39;;;;;;;13.98;7.78;;;0.90;99.90;;;;;;5042013;28;20045;-70
2022/02/13 04:28:05;;;;;;;13.68;8.90;;;0.90;99.90;;;;;;5045403;28;20041;-71
2022/02/13 04:30:31;;;;;;;13.70;8.75;;;0.90;99.90;;;;;;5009829;28;20476;-70
2022/02/13 04:32:58;;;;;;;16.52;9.23;;;0.90;99.90;;;;;;5010392;28;20041;-70
2022/02/13 04:35:25;;;;;;;14.60;9.32;;;0.90;99.90;;;;;;5042245;28;20214;-70
2022/02/13 04:37:52;;;;;;;14.40;9.30;;;0.90;99.90;;;;;;5025873;28;20047;-70
2022/02/13 04:40:19;;;;;;;15.32;8.18;;;1.00;99.90;;;;;;5026090;28;20052;-70
2022/02/13 04:42:46;;;;;;;12.23;8.57;;;0.90;99.90;;;;;;5043498;28;20045;-70
2022/02/13 04:45:13;;;;;;;13.90;8.07;;;0.90;99.90;;;;;;5045207;28;20547;-70
2022/02/13 04:47:40;;;;;;;14.07;9.60;;;0.90;99.90;;;;;;5023688;28;20041;-70
2022/02/13 04:50:07;;;;;;;14.07;8.40;;;0.80;99.90;;;;;;5040990;28;20045;-70
2022/02/13 04:52:33;;;;;;;14.82;9.18;;;0.80;99.90;;;;;;5042230;28;20527;-70
2022/02/13 04:54:59;;;;;;;13.65;8.75;;;0.80;99.90;;;;;;5043537;28;20037;-70
2022/02/13 04:57:27;;;;;;;13.68;8.35;;;0.80;99.90;;;;;;5009847;28;20068;-70
2022/02/13 04:59:53;;;;;;;16.15;8.93;;;0.80;99.90;;;;;;5041773;28;20068;-70
2022/02/13 05:02:20;;;;;;;16.75;9.27;;;0.70;99.90;;;;;;5025785;28;20080;-70
2022/02/13 05:04:46;;;;;;;13.77;8.50;;;0.70;99.90;;;;;;5025015;28;20256;-71
2022/02/13 05:07:12;;;;;;;13.32;9.05;;;0.70;99.90;;;;;;5025529;28;20040;-70
2022/02/13 05:09:39;;;;;;;15.35;9.07;;;0.70;99.90;;;;;;5023845;28;20747;-71
2022/02/13 05:12:05;;;;;;;14.57;9.38;;;0.70;99.90;;;;;;5024781;28;20084;-70
2022/02/13 05:14:31;;;;;;;13.60;9.20;;;0.70;99.90;;;;;;5041668;28;20606;-70
2022/02/13 05:16:57;;;;;;;14.85;9.00;;;0.70;99.90;;;;;;5024662;28;20451;-70
2022/02/13 05:19:23;;;;;;;11.98;8.68;;;0.60;99.90;;;;;;5007679;28;20123;-70
2022/02/13 05:21:54;;;;;;;12.15;8.98;;;0.70;99.90;;;;;;5023399;28;20059;-70
2022/02/13 05:24:21;;;;;;;13.85;8.15;;;0.70;99.90;;;;;;5024513;28;20045;-70
2022/02/13 05:26:47;;;;;;;17.38;10.05;;;0.70;99.90;;;;;;5023632;28;20518;-71
2022/02/13 05:29:13;;;;;;;14.90;8.80;;;0.60;99.90;;;;;;5039003;28;20121;-71
2022/02/13 05:31:39;;;;;;;14.45;9.10;;;0.60;99.90;;;;;;5040599;28;20060;-70
2022/02/13 05:34:05;;;;;;;14.82;8.73;;;0.60;99.90;;;;;;5020490;28;20526;-71
2022/02/13 05:36:31;;;;;;;13.30;8.48;;;0.60;99.90;;;;;;5040848;28;20049;-70
2022/02/13 05:38:57;;;;;;;13.45;8.23;;;0.60;99.90;;;;;;5007103;28;20040;-71
2022/02/13 05:41:23;;;;;;;14.77;8.63;;;0.60;99.90;;;;;;5057710;28;20061;-71
2022/02/13 05:43:50;;;;;;;14.65;8.88;;;0.70;99.90;;;;;;5040427;28;20060;-70
2022/02/13 05:46:16;;;;;;;10.45;7.90;;;0.70;99.90;;;;;;5025340;28;20049;-71
2022/02/13 05:48:45;;;;;;;13.13;8.35;;;0.70;99.90;;;;;;5037730;28;20049;-71
2022/02/13 05:51:13;;;;;;;12.27;8.05;;;0.70;99.90;;;;;;5040879;28;20162;-70
2022/02/13 05:53:39;;;;;;;12.88;8.57;;;0.80;99.90;;;;;;5038476;28;20118;-70
2022/02/13 05:56:07;;;;;;;16.45;8.95;;;0.70;99.90;;;;;;5023647;28;20053;-70
2022/02/13 05:58:39;;;;;;;12.85;8.45;;;0.70;99.90;;;;;;5022784;28;20052;-71
2022/02/13 06:01:06;;;;;;;14.00;8.70;;;0.80;99.90;;;;;;5038811;28;20103;-70
2022/02/13 06:03:32;;;;;;;13.10;8.57;;;0.80;99.90;;;;;;5022299;28;20052;-70
2022/02/13 06:05:58;;;;;;;14.45;8.40;;;0.80;99.90;;;;;;5025308;28;20538;-71
2022/02/13 06:08:24;;;;;;;11.45;7.63;;;0.80;99.90;;;;;;5006831;28;20063;-70
2022/02/13 06:10:50;;;;;;;13.55;8.85;;;0.80;99.90;;;;;;5040518;28;20444;-70
2022/02/13 06:13:16;;;;;;;13.95;8.13;;;0.80;99.90;;;;;;5008115;28;20056;-71
2022/02/13 06:15:42;;;;;;;11.27;8.48;;;0.90;99.90;;;;;;5007271;28;20049;-71
2022/02/13 06:18:08;;;;;;;11.93;8.20;;;0.80;99.90;;;;;;5039256;28;20041;-72
2022/02/13 06:20:36;;;;;;;14.05;8.45;;;0.70;99.90;;;;;;5025288;28;20179;-71
2022/02/13 06:23:02;;;;;;;12.55;8.57;;;0.70;99.90;;;;;;5040179;28;20048;-71
2022/02/13 06:25:28;;;;;;;12.30;8.57;;;0.70;99.90;;;;;;5006659;28;20041;-71
2022/02/13 06:27:54;;;;;;;11.70;9.38;;;0.70;99.90;;;;;;5010703;28;20136;-71
2022/02/13 06:30:20;;;;;;;13.98;8.68;;;0.80;99.90;;;;;;5042935;28;20064;-72
2022/02/13 06:32:46;;;;;;;11.80;7.90;;;0.70;99.90;;;;;;5024429;28;20045;-73
2022/02/13 06:35:13;;;;;;;14.32;8.48;;;0.70;99.90;;;;;;5022673;28;20165;-71
2022/02/13 06:37:39;;;;;;;15.80;8.70;;;0.70;99.90;;;;;;5039193;28;20045;-72
2022/02/13 06:40:05;;;;;;;12.50;7.75;;;0.80;99.90;;;;;;5007633;28;20056;-71
2022/02/13 06:42:31;;;;;;;11.98;8.18;;;0.70;99.90;;;;;;5023454;28;20277;-71
2022/02/13 06:44:57;;;;;;;13.18;7.70;;;0.70;99.90;;;;;;5037337;28;20103;-71
2022/02/13 06:47:23;;;;;;;12.82;8.60;;;0.70;99.90;;;;;;5033486;28;20063;-71
2022/02/13 06:49:50;;;;;;;11.93;8.10;;;0.70;99.90;;;;;;5019196;28;20155;-71
2022/02/13 06:52:16;;;;;;;13.93;7.97;;;0.70;99.90;;;;;;5050504;28;20515;-71
2022/02/13 06:54:42;;;;;;;11.73;8.00;;;0.70;99.90;;;;;;5022320;28;20060;-71
2022/02/13 06:57:09;;;;;;;10.80;8.68;;;0.70;99.90;;;;;;5019640;28;20583;-72
2022/02/13 06:59:35;;;;;;;13.88;8.30;;;0.70;99.90;;;;;;5003882;28;20045;-72
2022/02/13 07:02:01;;;;;;;12.55;8.65;;;0.80;99.90;;;;;;5018760;28;20467;-71
2022/02/13 07:04:27;;;;;;;11.93;7.72;;;0.70;99.90;;;;;;5032919;28;20123;-71
2022/02/13 07:06:53;;;;;;;10.90;8.20;;;0.80;99.90;;;;;;5003101;28;20053;-71
2022/02/13 07:09:19;;;;;;;12.57;8.60;;;0.90;99.90;;;;;;5021207;28;20072;-70
2022/02/13 07:11:45;;;;;;;14.77;7.93;;;0.90;99.90;;;;;;5035829;28;20145;-72
2022/02/13 07:14:11;;;;;;;11.98;8.43;;;0.90;99.90;;;;;;5035005;28;20056;-71
2022/02/13 07:16:37;;;;;;;12.88;7.30;;;1.00;99.90;;;;;;5018919;28;20131;-72
2022/02/13 07:19:04;;;;;;;12.55;7.88;;;1.00;99.90;;;;;;5006577;28;20459;-63
2022/02/13 07:21:30;;;;;;;15.27;8.52;;;1.10;99.90;;;;;;5002424;28;20067;-64
2022/02/13 07:23:56;;;;;;;13.27;7.90;;;1.10;99.90;;;;;;5021679;28;20057;-64
2022/02/13 07:26:24;;;;;;;11.85;7.85;;;1.20;99.90;;;;;;5019290;28;20081;-64
2022/02/13 07:28:59;;;;;;;12.45;7.85;;;1.20;99.90;;;;;;5034789;28;20519;-64
2022/02/13 07:31:29;;;;;;;10.65;7.95;;;1.30;99.90;;;;;;5037071;28;20088;-66
2022/02/13 07:33:57;;;;;;;12.32;8.10;;;1.30;99.90;;;;;;5036810;28;20045;-63
2022/02/13 07:36:24;;;;;;;13.35;8.43;;;1.40;99.90;;;;;;5003824;28;20045;-63
2022/02/13 07:38:50;;;;;;;12.52;8.45;;;1.40;99.90;;;;;;5050510;28;20045;-63
2022/02/13 07:41:16;;;;;;;12.68;7.97;;;1.40;99.90;;;;;;5035518;28;20056;-63
2022/02/13 07:43:42;;;;;;;11.80;8.45;;;1.50;99.90;;;;;;5051210;28;20412;-71
2022/02/13 07:46:09;;;;;;;11.85;7.75;;;1.60;99.90;;;;;;5049649;28;20118;-71
2022/02/13 07:48:35;;;;;;;13.05;8.70;;;1.60;99.90;;;;;;5032906;28;20071;-70
2022/02/13 07:51:02;;;;;;;11.77;8.43;;;1.60;99.90;;;;;;5012258;28;20102;-70
2022/02/13 07:53:29;;;;;;;12.80;8.50;;;1.70;99.90;;;;;;5023090;28;20146;-71
2022/02/13 07:55:55;;;;;;;12.05;8.50;;;1.70;99.90;;;;;;5016490;28;20103;-71
2022/02/13 07:58:21;;;;;;;13.48;8.65;;;1.70;99.90;;;;;;5019024;28;20122;-63
2022/02/13 08:00:48;;;;;;;10.40;8.30;;;1.80;99.90;;;;;;5019471;28;20560;-62
2022/02/13 08:03:14;;;;;;;11.15;7.50;;;1.80;99.90;;;;;;5033646;28;20064;-63
2022/02/13 08:05:40;;;;;;;12.60;7.88;;;1.90;99.90;;;;;;5017210;28;20045;-63
2022/02/13 08:08:06;;;;;;;9.00;7.10;;;1.90;99.90;;;;;;5037060;28;20483;-63
2022/02/13 08:10:32;;;;;;;9.90;7.65;;;2.00;99.90;;;;;;5011186;28;20048;-61
2022/02/13 08:12:59;;;;;;;10.60;7.82;;;2.10;99.90;;;;;;5051060;28;20040;-62
2022/02/13 08:15:25;;;;;;;12.98;8.73;;;2.10;99.90;;;;;;5017036;28;20422;-63
2022/02/13 08:17:51;;;;;;;11.20;8.48;;;2.10;99.90;;;;;;5040406;28;21351;-62
2022/02/13 08:20:17;;;;;;;13.00;8.23;;;2.20;99.90;;;;;;5038750;28;20512;-62
2022/02/13 08:22:43;;;;;;;9.95;7.13;;;2.30;99.90;;;;;;5035669;28;20515;-63
2022/02/13 08:25:10;;;;;;;11.00;7.57;;;2.30;99.90;;;;;;5023261;28;20048;-67
2022/02/13 08:27:37;;;;;;;11.07;7.75;;;2.30;99.90;;;;;;5020245;28;20036;-70
2022/02/13 08:30:04;;;;;;;11.70;8.10;;;2.40;99.90;;;;;;5038027;28;20225;-69
2022/02/13 08:32:30;;;;;;;9.05;7.35;;;2.50;99.90;;;;;;5038661;28;20600;-70
2022/02/13 08:34:56;;;;;;;10.80;7.53;;;2.50;99.90;;;;;;5042154;28;20131;-69
2022/02/13 08:37:22;;;;;;;9.90;6.78;;;2.50;99.90;;;;;;5040416;28;20515;-70
2022/02/13 08:39:48;;;;;;;13.50;9.07;;;2.60;99.90;;;;;;5039390;28;20139;-66
2022/02/13 08:42:15;;;;;;;12.38;7.70;;;2.50;99.90;;;;;;5043101;28;21029;-63
2022/02/13 08:44:41;;;;;;;12.30;7.55;;;2.60;99.90;;;;;;5025039;28;20055;-62
2022/02/13 08:47:07;;;;;;;11.68;7.90;;;2.60;99.90;;;;;;5041257;28;20037;-63
2022/02/13 08:49:33;;;;;;;11.20;7.20;;;2.70;99.90;;;;;;5038918;28;20096;-62
2022/02/13 08:51:59;;;;;;;10.15;7.70;;;2.70;99.90;;;;;;5040843;28;20127;-63
2022/02/13 08:54:25;;;;;;;10.18;6.90;;;2.90;99.90;;;;;;5010186;28;20045;-62
2022/02/13 08:56:53;;;;;;;9.43;7.32;;;2.90;99.90;;;;;;5027198;28;20087;-62
2022/02/13 08:59:19;;;;;;;10.73;7.30;;;3.00;99.90;;;;;;5043334;28;20089;-65
2022/02/13 09:01:46;;;;;;;13.23;7.50;;;3.10;99.90;;;;;;5026669;28;20535;-63
2022/02/13 09:04:12;;;;;;;10.18;7.53;;;3.10;99.90;;;;;;5026147;28;20052;-63
2022/02/13 09:06:38;;;;;;;10.07;7.22;;;3.20;99.90;;;;;;5041884;28;20574;-63
2022/02/13 09:09:06;;;;;;;10.25;6.57;;;3.20;99.90;;;;;;5039136;28;20075;-63
2022/02/13 09:11:32;;;;;;;8.93;6.40;;;3.30;99.90;;;;;;5023308;28;20052;-63
2022/02/13 09:14:01;;;;;;;13.77;9.95;;;3.30;99.90;;;;;;5040572;28;20496;-63
2022/02/13 09:16:27;;;;;;;12.13;7.53;;;3.40;99.90;;;;;;5025423;28;20048;-64
2022/02/13 09:18:53;;;;;;;8.75;7.50;;;3.50;99.90;;;;;;5007826;28;20449;-63
2022/02/13 09:21:20;;;;;;;10.25;7.25;;;3.60;99.90;;;;;;5005064;28;20053;-63
2022/02/13 09:23:46;;;;;;;9.85;6.75;;;3.70;99.90;;;;;;5005290;28;20055;-63
2022/02/13 09:26:12;;;;;;;11.05;7.40;;;3.80;99.90;;;;;;5025746;28;20057;-70
2022/02/13 09:28:38;;;;;;;10.65;7.47;;;3.90;99.90;;;;;;5023293;28;20086;-70
2022/02/13 09:31:04;;;;;;;10.57;7.97;;;3.90;99.90;;;;;;5007037;28;20220;-70
2022/02/13 09:33:31;;;;;;;10.82;8.10;;;4.00;99.90;;;;;;5039803;28;20049;-70
2022/02/13 09:35:57;;;;;;;9.75;6.57;;;4.20;99.90;;;;;;5039779;28;20815;-70
2022/02/13 09:38:23;;;;;;;10.07;6.75;;;4.30;99.90;;;;;;5021395;28;20118;-69
2022/02/13 09:40:50;;;;;;;9.27;6.47;;;4.30;99.90;;;;;;5020558;28;20739;-70
2022/02/13 09:43:20;;;;;;;9.63;6.80;;;4.40;99.90;;;;;;5022614;28;20540;-70
2022/02/13 09:45:51;;;;;;;11.00;7.20;;;4.50;99.90;;;;;;5038779;28;20053;-70
2022/02/13 09:48:19;;;;;;;9.98;7.38;;;4.50;99.90;;;;;;5039854;28;20072;-63
2022/02/13 09:50:47;;;;;;;9.65;6.90;;;4.40;99.90;;;;;;5041678;28;20105;-63
2022/02/13 09:53:17;;;;;;;10.20;7.15;;;4.50;99.90;;;;;;5040926;28;20048;-62
2022/02/13 09:55:44;;;;;;;11.93;7.15;;;4.50;99.90;;;;;;5004333;28;20045;-60
2022/02/13 09:58:10;;;;;;;9.68;6.85;;;4.50;99.90;;;;;;5039962;28;20045;-63
2022/02/13 10:00:58;;;;;;;8.70;6.30;;;4.50;99.90;;;;;;5056697;28;20053;-64
2022/02/13 10:03:32;;;;;;;8.93;6.72;;;4.40;99.90;;;;;;5038304;28;20055;-63
2022/02/13 10:06:20;;;;;;;10.30;7.25;;;4.40;99.90;;;;;;5039832;28;20041;-63
2022/02/13 10:08:50;;;;;;;11.27;6.85;;;4.40;99.90;;;;;;5021543;28;20547;-63
2022/02/13 10:11:34;;;;;;;9.13;6.65;;;4.50;99.90;;;;;;5039573;28;20158;-63
2022/02/13 10:14:01;;;;;;;9.38;6.43;;;4.50;99.90;;;;;;5055849;28;20083;-62
2022/02/13 10:16:36;;;;;;;8.52;6.75;;;4.60;99.90;;;;;;5006829;28;20056;-63
2022/02/13 10:19:10;;;;;;;9.38;6.60;;;4.70;99.90;;;;;;5041078;28;20477;-62
2022/02/13 10:21:44;;;;;;;10.57;7.00;;;4.80;99.90;;;;;;5005324;28;20571;-63
2022/02/13 10:24:24;;;;;;;8.13;6.85;;;5.10;99.90;;;;;;5039629;28;20559;-62
2022/02/13 10:26:50;;;;;;;10.82;7.50;;;5.30;99.90;;;;;;5038393;28;20446;-63
2022/02/13 10:29:19;;;;;;;9.88;7.18;;;5.30;99.90;;;;;;5039144;28;20146;-62
2022/02/13 10:31:45;;;;;;;11.18;7.75;;;5.40;99.90;;;;;;5038314;28;20071;-62
2022/02/13 10:34:14;;;;;;;11.40;7.32;;;5.40;99.90;;;;;;5023149;28;20186;-66
2022/02/13 10:36:43;;;;;;;8.48;6.95;;;5.40;99.90;;;;;;5056984;28;20086;-66
2022/02/13 10:39:21;;;;;;;8.52;6.50;;;5.50;99.90;;;;;;4990479;28;20040;-67
2022/02/13 10:41:48;;;;;;;9.48;6.47;;;5.50;99.90;;;;;;5023428;28;20045;-66
2022/02/13 10:44:15;;;;;;;9.40;6.53;;;5.60;99.90;;;;;;5004055;28;20053;-69
2022/02/13 10:46:43;;;;;;;9.88;6.97;;;5.60;99.90;;;;;;5037591;28;20041;-69
2022/02/13 10:49:13;;;;;;;9.25;7.60;;;5.70;99.90;;;;;;5039174;28;20503;-70
2022/02/13 10:51:39;;;;;;;9.98;6.22;;;5.70;99.90;;;;;;5048160;28;20039;-71
2022/02/13 10:54:06;;;;;;;8.73;6.80;;;5.70;99.90;;;;;;5038019;28;20850;-69
2022/02/13 10:56:35;;;;;;;10.75;6.75;;;5.70;99.90;;;;;;5021318;28;20073;-69
2022/02/13 10:59:05;;;;;;;8.65;7.13;;;5.70;99.90;;;;;;5037154;28;20048;-70
2022/02/13 11:01:32;;;;;;;8.73;7.32;;;5.70;99.90;;;;;;5005547;28;20048;-69
2022/02/13 11:04:03;;;;;;;8.38;6.50;;;5.80;99.90;;;;;;5021303;28;20128;-69
2022/02/13 11:06:39;;;;;;;8.80;6.13;;;6.00;99.90;;;;;;5039709;28;20048;-69
2022/02/13 11:09:28;;;;;;;9.52;6.78;;;6.20;99.90;;;;;;5034176;28;20048;-69
2022/02/13 11:11:56;;;;;;;8.00;6.82;;;6.40;99.90;;;;;;5036011;28;20048;-69
2022/02/13 11:14:24;;;;;;;8.07;6.65;;;6.30;99.90;;;;;;5037518;28;20045;-69
2022/02/13 11:16:52;;;;;;;9.38;7.32;;;6.30;99.90;;;;;;5037722;28;20091;-69
2022/02/13 11:19:19;;;;;;;9.02;6.63;;;6.30;99.90;;;;;;5020138;28;20052;-69
2022/02/13 11:21:46;;;;;;;9.07;7.18;;;6.40;99.90;;;;;;5019958;28;20055;-70
2022/02/13 11:24:28;;;;;;;8.85;6.55;;;6.50;99.90;;;;;;5020850;28;20402;-69
2022/02/13 11:27:00;;;;;;;8.02;6.53;;;6.50;99.90;;;;;;5021439;28;20585;-69
2022/02/13 11:29:56;;;;;;;10.70;6.88;;;6.80;99.90;;;;;;5036978;28;20056;-69
2022/02/13 11:32:49;;;;;;;8.55;6.38;;;7.50;99.90;;;;;;5037121;28;20049;-68
2022/02/13 11:35:17;;;;;;;7.65;6.55;;;7.70;99.90;;;;;;4967972;28;20103;-68
2022/02/13 11:37:46;;;;;;;10.93;7.45;;;7.80;99.90;;;;;;5020003;28;20047;-68
2022/02/13 11:40:34;;;;;;;8.05;6.50;;;8.20;99.90;;;;;;5039105;28;20040;-67
2022/02/13 11:43:02;;;;;;;9.93;6.70;;;8.70;99.90;;;;;;5030334;28;20053;-68
2022/02/13 11:45:44;;;;;;;8.13;6.78;;;9.10;99.90;;;;;;5034685;28;20064;-68
2022/02/13 11:48:32;;;;;;;8.45;6.68;;;9.60;99.90;;;;;;5023208;28;20127;-68
2022/02/13 11:50:58;;;;;;;9.35;6.50;;;9.40;99.10;;;;;;5023935;28;20362;-68
2022/02/13 11:53:27;;;;;;;9.30;6.57;;;9.70;99.90;;;;;;5038610;28;20045;-68
2022/02/13 11:55:53;;;;;;;9.30;6.45;;;9.40;99.90;;;;;;5038306;28;20092;-68
2022/02/13 11:58:20;;;;;;;8.88;6.03;;;9.80;99.90;;;;;;5005218;28;20159;-68
2022/02/13 12:00:48;;;;;;;11.68;6.03;;;9.80;99.90;;;;;;5024407;28;20398;-68
2022/02/13 12:03:32;;;;;;;10.00;7.47;;;9.70;99.90;;;;;;5038711;28;20083;-68
2022/02/13 12:06:04;;;;;;;7.22;6.50;;;9.80;99.90;;;;;;5017884;28;20128;-68
2022/02/13 12:08:30;;;;;;;8.55;6.72;;;10.30;99.90;;;;;;5023719;28;20087;-64
2022/02/13 12:11:08;;;;;;;8.63;6.68;;;10.20;99.90;;;;;;5042283;28;20344;-65
2022/02/13 12:13:36;;;;;;;8.98;6.18;;;10.10;85.20;;;;;;5008609;28;20048;-68
2022/02/13 12:16:05;;;;;;;7.68;5.93;;;10.20;88.30;;;;;;5038387;28;20080;-68
2022/02/13 12:18:32;;;;;;;8.77;6.40;;;10.10;87.70;;;;;;5042006;28;20041;-67
2022/02/13 12:21:01;;;;;;;9.77;6.38;;;10.40;86.00;;;;;;5058789;28;20049;-68
2022/02/13 12:23:29;;;;;;;7.50;5.90;;;10.50;79.80;;;;;;5025860;28;20041;-67
2022/02/13 12:25:55;;;;;;;7.65;6.10;;;10.90;74.80;;;;;;5043660;28;20048;-67
2022/02/13 12:28:31;;;;;;;8.48;5.90;;;10.80;71.90;;;;;;5041319;28;20115;-67
2022/02/13 12:31:00;;;;;;;8.68;5.78;;;10.80;69.80;;;;;;5043005;28;20053;-67
2022/02/13 12:33:27;;;;;;;6.35;5.43;;;11.50;73.40;;;;;;5010052;28;20051;-67
2022/02/13 12:35:59;;;;;;;7.82;5.68;;;11.50;68.40;;;;;;5025755;28;20507;-67
2022/02/13 12:38:28;;;;;;;7.13;5.72;;;11.40;65.70;;;;;;5041876;28;20377;-64
2022/02/13 12:40:59;;;;;;;6.72;5.30;;;11.60;66.60;;;;;;5025255;28;20436;-64
2022/02/13 12:43:27;;;;;;;6.03;5.28;;;11.90;68.20;;;;;;5007569;28;20458;-64
2022/02/13 12:45:57;;;;;;;6.10;5.35;;;11.90;65.80;;;;;;5025688;28;20080;-67
2022/02/13 12:48:26;;;;;;;7.72;5.30;;;12.00;64.10;;;;;;5040016;28;20477;-67
2022/02/13 12:50:58;;;;;;;7.38;5.50;;;11.50;62.50;;;;;;5024441;28;20068;-67